createdAt,value
2023-04-10T00:01:13.171Z,9.20
2023-04-10T00:04:16.773Z,9.73
2023-04-10T00:07:26.477Z,9.35
2023-04-10T00:10:31.791Z,10.13
2023-04-10T00:13:35.364Z,9.60
2023-04-10T00:16:38.871Z,10.30
2023-04-10T00:19:42.297Z,9.40
2023-04-10T00:22:45.710Z,10.00
2023-04-10T00:25:49.335Z,9.43
2023-04-10T00:28:52.839Z,9.90
2023-04-10T00:31:56.706Z,10.35
2023-04-10T00:35:00.241Z,10.10
2023-04-10T00:38:03.594Z,9.90
2023-04-10T00:41:07.328Z,10.37
2023-04-10T00:44:10.771Z,9.52
2023-04-10T00:47:15.771Z,10.85
2023-04-10T00:50:21.068Z,10.35
2023-04-10T00:53:24.529Z,10.35
2023-04-10T00:56:28.447Z,9.67
2023-04-10T00:59:32.635Z,10.27
2023-04-10T01:02:36.715Z,10.55
2023-04-10T01:06:15.641Z,10.38
2023-04-10T01:09:44.527Z,11.30
2023-04-10T01:13:16.387Z,10.60
2023-04-10T01:16:29.135Z,11.68
2023-04-10T01:20:01.218Z,11.48
2023-04-10T01:23:47.775Z,11.30
2023-04-10T01:27:21.095Z,11.48
2023-04-10T01:30:26.932Z,10.77
2023-04-10T01:33:47.785Z,10.82
2023-04-10T01:37:02.300Z,11.38
2023-04-10T01:40:08.973Z,11.23
2023-04-10T01:43:13.118Z,10.82
2023-04-10T01:46:28.425Z,11.73
2023-04-10T01:49:33.205Z,11.23
2023-04-10T01:52:41.733Z,11.10
2023-04-10T01:55:57.700Z,11.48
2023-04-10T01:59:01.366Z,11.55
2023-04-10T02:02:07.795Z,11.97
2023-04-10T02:05:11.730Z,11.18
2023-04-10T02:08:26.608Z,11.93
2023-04-10T02:11:53.264Z,11.70
2023-04-10T02:14:59.575Z,11.45
2023-04-10T02:18:06.749Z,11.90
2023-04-10T02:21:10.403Z,12.00
2023-04-10T02:24:14.343Z,11.52
2023-04-10T02:27:27.400Z,12.38
2023-04-10T02:30:30.777Z,12.68
2023-04-10T02:33:35.032Z,16.00
2023-04-10T02:36:39.484Z,13.55
2023-04-10T02:39:44.496Z,12.85
2023-04-10T02:42:48.313Z,12.63
2023-04-10T02:45:52.295Z,11.68
2023-04-10T02:49:01.702Z,12.57
2023-04-10T02:52:05.447Z,11.82
2023-04-10T02:55:09.120Z,12.25
2023-04-10T02:58:15.239Z,12.27
2023-04-10T03:01:18.960Z,13.13
2023-04-10T03:04:24.399Z,13.17
2023-04-10T03:07:27.872Z,14.48
2023-04-10T03:10:31.255Z,13.70
2023-04-10T03:13:34.596Z,13.45
2023-04-10T03:16:38.209Z,13.43
2023-04-10T03:19:41.724Z,13.07
2023-04-10T03:22:45.652Z,14.02
2023-04-10T03:25:54.843Z,14.82
2023-04-10T03:29:01.788Z,15.38
2023-04-10T03:32:06.221Z,14.23
2023-04-10T03:35:12.041Z,11.67
2023-04-10T03:38:16.308Z,12.68
2023-04-10T03:41:19.680Z,13.10
2023-04-10T03:44:23.180Z,12.27
2023-04-10T03:47:27.458Z,12.32
2023-04-10T03:50:31.229Z,13.00
2023-04-10T03:53:36.946Z,12.75
2023-04-10T03:56:45.280Z,13.05
2023-04-10T03:59:49.330Z,13.05
2023-04-10T04:02:54.226Z,14.45
2023-04-10T04:06:27.527Z,16.77
2023-04-10T04:09:49.526Z,17.27
2023-04-10T04:13:11.353Z,13.70
2023-04-10T04:16:31.733Z,12.20
2023-04-10T04:19:55.450Z,13.77
2023-04-10T04:23:21.910Z,12.83
2023-04-10T04:26:45.648Z,12.55
2023-04-10T04:30:04.786Z,13.43
2023-04-10T04:33:36.337Z,12.90
2023-04-10T04:36:59.573Z,12.88
2023-04-10T04:40:29.273Z,11.83
2023-04-10T04:43:47.487Z,12.48
2023-04-10T04:47:00.427Z,13.38
2023-04-10T04:50:22.362Z,13.15
2023-04-10T04:53:25.787Z,13.30
2023-04-10T04:56:52.458Z,11.77
2023-04-10T05:00:14.733Z,12.35
2023-04-10T05:03:53.517Z,13.23
2023-04-10T05:07:20.554Z,12.07
2023-04-10T05:10:24.068Z,13.82
2023-04-10T05:14:00.489Z,13.60
2023-04-10T05:17:09.794Z,16.20
2023-04-10T05:20:22.618Z,26.05
2023-04-10T05:23:42.190Z,20.65
2023-04-10T05:26:59.604Z,16.40
2023-04-10T05:30:25.981Z,14.13
2023-04-10T05:33:58.344Z,14.45
2023-04-10T05:37:09.477Z,14.05
2023-04-10T05:40:23.842Z,14.95
2023-04-10T05:43:33.616Z,14.52
2023-04-10T05:46:44.264Z,15.60
2023-04-10T05:50:08.367Z,13.77
2023-04-10T05:53:44.135Z,13.45
2023-04-10T05:57:06.404Z,14.25
2023-04-10T06:00:28.024Z,12.38
2023-04-10T06:03:50.052Z,12.20
2023-04-10T06:06:54.009Z,13.23
2023-04-10T06:09:57.783Z,13.30
2023-04-10T06:13:01.382Z,11.82
2023-04-10T06:16:05.539Z,12.88
2023-04-10T06:19:10.100Z,12.30
2023-04-10T06:22:13.518Z,13.68
2023-04-10T06:25:16.888Z,13.88
2023-04-10T06:28:20.279Z,13.55
2023-04-10T06:31:27.421Z,14.38
2023-04-10T06:34:31.365Z,12.83
2023-04-10T06:37:39.505Z,12.95
2023-04-10T06:40:43.127Z,14.40
2023-04-10T06:43:46.966Z,13.50
2023-04-10T06:46:50.362Z,13.63
2023-04-10T06:49:53.991Z,13.27
2023-04-10T06:53:00.092Z,14.02
2023-04-10T06:56:06.035Z,13.45
2023-04-10T06:59:09.738Z,13.27
2023-04-10T07:02:13.598Z,13.20
2023-04-10T07:05:17.852Z,12.50
2023-04-10T07:08:21.278Z,13.27
2023-04-10T07:11:24.715Z,16.38
2023-04-10T07:14:28.174Z,12.80
2023-04-10T07:17:31.528Z,11.13
2023-04-10T07:20:34.941Z,10.10
2023-04-10T07:23:38.405Z,10.27
2023-04-10T07:26:41.843Z,10.45
2023-04-10T07:29:45.740Z,10.68
2023-04-10T07:32:49.571Z,10.35
2023-04-10T07:35:53.451Z,10.83
2023-04-10T07:38:57.099Z,10.10
2023-04-10T07:42:00.846Z,11.32
2023-04-10T07:45:04.526Z,12.27
2023-04-10T07:48:08.116Z,12.80
2023-04-10T07:51:11.657Z,11.70
2023-04-10T07:54:15.145Z,12.98
2023-04-10T07:57:18.550Z,13.68
2023-04-10T08:00:22.314Z,12.10
2023-04-10T08:03:26.413Z,12.95
2023-04-10T08:06:31.736Z,11.93
2023-04-10T08:09:35.372Z,12.23
2023-04-10T08:12:38.719Z,12.75
2023-04-10T08:15:42.065Z,13.00
2023-04-10T08:18:45.915Z,12.73
2023-04-10T08:21:49.321Z,11.77
2023-04-10T08:24:52.810Z,12.50
2023-04-10T08:27:56.142Z,12.10
2023-04-10T08:30:59.520Z,12.65
2023-04-10T08:34:04.140Z,12.70
2023-04-10T08:37:11.818Z,12.50
2023-04-10T08:40:15.845Z,12.60
2023-04-10T08:43:19.425Z,12.68
2023-04-10T08:46:27.576Z,12.90
2023-04-10T08:49:55.930Z,14.00
2023-04-10T08:53:06.139Z,13.53
2023-04-10T08:56:16.494Z,11.63
2023-04-10T08:59:20.588Z,13.93
2023-04-10T09:02:25.335Z,13.05
2023-04-10T09:05:29.727Z,12.70
2023-04-10T09:08:33.945Z,12.77
2023-04-10T09:11:55.516Z,12.82
2023-04-10T09:14:58.850Z,12.45
2023-04-10T09:18:03.911Z,12.32
2023-04-10T09:21:08.672Z,13.05
2023-04-10T09:24:13.016Z,13.80
2023-04-10T09:27:35.224Z,12.35
2023-04-10T09:30:41.481Z,12.68
2023-04-10T09:33:44.985Z,13.23
2023-04-10T09:36:56.888Z,13.00
2023-04-10T09:40:00.809Z,13.17
2023-04-10T09:43:20.539Z,14.40
2023-04-10T09:46:28.910Z,12.63
2023-04-10T09:49:55.501Z,13.13
2023-04-10T09:52:58.884Z,13.15
2023-04-10T09:56:03.082Z,13.20
2023-04-10T09:59:07.999Z,12.10
2023-04-10T10:02:13.560Z,12.20
2023-04-10T10:05:17.790Z,11.93
2023-04-10T10:08:21.717Z,11.60
2023-04-10T10:11:26.249Z,12.23
2023-04-10T10:14:30.351Z,14.00
2023-04-10T10:17:43.024Z,12.10
2023-04-10T10:20:47.471Z,12.15
2023-04-10T10:23:54.262Z,12.98
2023-04-10T10:26:59.630Z,15.70
2023-04-10T10:30:12.063Z,12.77
2023-04-10T10:33:19.958Z,12.85
2023-04-10T10:36:23.977Z,12.52
2023-04-10T10:39:52.330Z,12.75
2023-04-10T10:43:08.471Z,11.50
2023-04-10T10:46:41.241Z,13.50
2023-04-10T10:49:54.701Z,14.07
2023-04-10T10:52:58.093Z,13.07
2023-04-10T10:56:25.815Z,14.65
2023-04-10T10:59:44.164Z,13.47
2023-04-10T11:03:07.599Z,12.75
2023-04-10T11:06:13.274Z,14.65
2023-04-10T11:09:52.007Z,13.27
2023-04-10T11:13:18.464Z,13.18
2023-04-10T11:16:23.209Z,12.80
2023-04-10T11:19:26.863Z,13.68
2023-04-10T11:22:30.577Z,13.43
2023-04-10T11:25:54.820Z,12.00
2023-04-10T11:28:58.500Z,12.82
2023-04-10T11:32:04.508Z,13.07
2023-04-10T11:35:09.144Z,12.05
2023-04-10T11:38:14.567Z,12.90
2023-04-10T11:41:18.024Z,11.77
2023-04-10T11:44:36.885Z,11.20
2023-04-10T11:47:40.521Z,10.53
2023-04-10T11:50:44.174Z,10.48
2023-04-10T11:53:47.799Z,12.00
2023-04-10T11:57:09.669Z,14.05
2023-04-10T12:00:23.572Z,10.65
2023-04-10T12:03:44.246Z,10.73
2023-04-10T12:06:52.985Z,10.10
2023-04-10T12:09:59.406Z,9.32
2023-04-10T12:13:02.834Z,9.60
2023-04-10T12:16:09.800Z,10.10
2023-04-10T12:19:14.276Z,9.03
2023-04-10T12:22:18.589Z,9.85
2023-04-10T12:25:22.421Z,9.90
2023-04-10T12:28:25.888Z,9.38
2023-04-10T12:31:30.303Z,9.77
2023-04-10T12:34:33.810Z,10.13
2023-04-10T12:37:54.553Z,11.70
2023-04-10T12:41:04.763Z,10.38
2023-04-10T12:44:11.069Z,9.10
2023-04-10T12:47:14.523Z,9.90
2023-04-10T12:50:19.121Z,9.70
2023-04-10T12:53:22.717Z,10.02
2023-04-10T12:56:26.137Z,10.30
2023-04-10T12:59:31.649Z,10.57
2023-04-10T13:02:39.014Z,10.60
2023-04-10T13:05:42.757Z,10.43
2023-04-10T13:08:46.844Z,10.82
2023-04-10T13:11:51.922Z,10.05
2023-04-10T13:14:56.358Z,10.40
2023-04-10T13:17:59.829Z,13.45
2023-04-10T13:21:03.356Z,12.03
2023-04-10T13:24:06.833Z,10.20
2023-04-10T13:27:10.866Z,9.43
2023-04-10T13:30:14.412Z,10.52
2023-04-10T13:33:17.853Z,11.70
2023-04-10T13:36:21.336Z,8.60
2023-04-10T13:39:26.511Z,9.15
2023-04-10T13:42:30.090Z,10.50
2023-04-10T13:45:34.924Z,9.88
2023-04-10T13:48:41.506Z,9.55
2023-04-10T13:51:46.138Z,9.33
2023-04-10T13:54:49.611Z,10.68
2023-04-10T13:57:53.149Z,10.95
2023-04-10T14:00:56.558Z,11.10
2023-04-10T14:04:00.055Z,13.07
2023-04-10T14:07:06.136Z,11.10
2023-04-10T14:10:10.738Z,11.40
2023-04-10T14:13:15.084Z,10.10
2023-04-10T14:16:18.517Z,10.20
2023-04-10T14:19:22.039Z,9.98
2023-04-10T14:22:25.499Z,7.23
2023-04-10T14:25:29.625Z,7.00
2023-04-10T14:28:33.609Z,6.47
2023-04-10T14:31:47.015Z,7.78
2023-04-10T14:34:58.309Z,6.90
2023-04-10T14:38:02.391Z,6.80
2023-04-10T14:41:05.981Z,6.32
2023-04-10T14:44:09.477Z,6.20
2023-04-10T14:47:12.972Z,6.82
2023-04-10T14:50:16.689Z,6.55
2023-04-10T14:53:21.797Z,6.43
2023-04-10T14:56:25.829Z,7.05
2023-04-10T14:59:29.204Z,6.93
2023-04-10T15:02:32.716Z,6.70
2023-04-10T15:05:36.090Z,6.90
2023-04-10T15:08:39.405Z,6.20
2023-04-10T15:11:42.767Z,6.65
2023-04-10T15:14:46.333Z,6.78
2023-04-10T15:17:49.915Z,7.78
2023-04-10T15:20:55.343Z,8.00
2023-04-10T15:23:58.932Z,8.43
2023-04-10T15:27:02.383Z,6.95
2023-04-10T15:30:06.900Z,7.85
2023-04-10T15:33:11.078Z,8.95
2023-04-10T15:36:14.584Z,9.45
2023-04-10T15:39:17.981Z,9.20
2023-04-10T15:42:21.901Z,13.18
2023-04-10T15:45:25.286Z,8.80
2023-04-10T15:48:29.300Z,7.93
2023-04-10T15:51:33.015Z,8.27
2023-04-10T15:54:38.372Z,8.00
2023-04-10T15:57:41.819Z,9.02
2023-04-10T16:00:51.848Z,10.50
2023-04-10T16:03:55.840Z,13.95
2023-04-10T16:06:59.687Z,17.13
2023-04-10T16:10:03.206Z,16.10
2023-04-10T16:13:06.968Z,13.32
2023-04-10T16:16:15.654Z,14.52
2023-04-10T16:19:19.596Z,13.10
2023-04-10T16:22:24.103Z,14.85
2023-04-10T16:25:27.782Z,12.17
2023-04-10T16:28:31.748Z,14.18
2023-04-10T16:31:35.383Z,13.80
2023-04-10T16:34:39.126Z,16.50
2023-04-10T16:37:42.593Z,19.23
2023-04-10T16:40:45.979Z,16.17
2023-04-10T16:43:49.477Z,15.95
2023-04-10T16:46:52.950Z,16.52
2023-04-10T16:49:56.509Z,17.27
2023-04-10T16:52:59.924Z,15.85
2023-04-10T16:56:05.242Z,15.50
2023-04-10T16:59:09.203Z,16.42
2023-04-10T17:02:12.594Z,18.10
2023-04-10T17:05:16.225Z,18.13
2023-04-10T17:08:19.627Z,19.90
2023-04-10T17:11:23.379Z,20.33
2023-04-10T17:14:26.956Z,17.23
2023-04-10T17:17:31.746Z,14.75
2023-04-10T17:20:38.263Z,13.48
2023-04-10T17:23:42.479Z,14.45
2023-04-10T17:26:45.903Z,12.90
2023-04-10T17:29:49.392Z,13.85
2023-04-10T17:32:53.108Z,12.82
2023-04-10T17:35:56.726Z,11.05
2023-04-10T17:39:01.089Z,9.90
2023-04-10T17:42:04.766Z,11.77
2023-04-10T17:45:08.849Z,11.43
2023-04-10T17:48:12.392Z,12.25
2023-04-10T17:51:16.071Z,10.50
2023-04-10T17:54:24.579Z,12.32
2023-04-10T17:57:28.150Z,13.23
2023-04-10T18:00:33.250Z,12.80
2023-04-10T18:03:36.704Z,11.18
2023-04-10T18:06:41.057Z,9.63
2023-04-10T18:09:45.580Z,9.43
2023-04-10T18:12:49.263Z,8.90
2023-04-10T18:15:52.756Z,8.32
2023-04-10T18:18:56.507Z,8.57
2023-04-10T18:22:00.130Z,8.90
2023-04-10T18:25:03.731Z,8.45
2023-04-10T18:31:16.791Z,8.38
2023-04-10T18:34:20.626Z,8.98
2023-04-10T18:37:24.093Z,9.18
2023-04-10T18:40:28.042Z,9.00
2023-04-10T18:43:31.786Z,8.20
2023-04-10T18:46:35.343Z,8.40
2023-04-10T18:49:38.842Z,9.40
2023-04-10T18:52:42.220Z,9.52
2023-04-10T18:55:53.083Z,12.10
2023-04-10T18:58:56.419Z,12.10
2023-04-10T19:01:59.891Z,12.88
2023-04-10T19:05:03.885Z,12.23
2023-04-10T19:08:07.297Z,11.52
2023-04-10T19:11:11.414Z,13.88
2023-04-10T19:14:14.855Z,14.43
2023-04-10T19:17:21.806Z,18.17
2023-04-10T19:20:48.884Z,22.30
2023-04-10T19:23:49.450Z,20.40
2023-04-10T19:26:55.110Z,17.58
2023-04-10T19:29:59.667Z,18.73
2023-04-10T19:33:03.224Z,27.70
2023-04-10T19:36:08.473Z,23.25
2023-04-10T19:39:12.456Z,23.88
2023-04-10T19:42:16.031Z,26.70
2023-04-10T19:45:20.336Z,22.90
2023-04-10T19:48:23.832Z,22.75
2023-04-10T19:51:27.501Z,25.10
2023-04-10T19:54:31.017Z,20.92
2023-04-10T19:57:34.760Z,25.25
2023-04-10T20:00:38.674Z,24.37
2023-04-10T20:03:43.110Z,24.45
2023-04-10T20:06:46.914Z,17.58
2023-04-10T20:09:50.676Z,13.40
2023-04-10T20:12:54.091Z,10.02
2023-04-10T20:15:57.577Z,10.77
2023-04-10T20:19:01.348Z,9.65
2023-04-10T20:22:04.780Z,9.35
2023-04-10T20:25:08.728Z,7.95
2023-04-10T20:28:12.105Z,7.47
2023-04-10T20:31:15.577Z,7.20
2023-04-10T20:34:19.029Z,7.63
2023-04-10T20:37:22.922Z,7.18
2023-04-10T20:40:26.794Z,5.57
2023-04-10T20:43:30.305Z,6.25
2023-04-10T20:46:33.876Z,6.20
2023-04-10T20:49:40.198Z,5.95
2023-04-10T20:52:43.537Z,5.80
2023-04-10T20:55:51.065Z,4.47
2023-04-10T20:58:54.546Z,4.85
2023-04-10T21:01:59.260Z,5.03
2023-04-10T21:05:02.728Z,5.32
2023-04-10T21:08:06.119Z,5.13
2023-04-10T21:11:09.618Z,5.05
2023-04-10T21:14:13.895Z,5.38
2023-04-10T21:17:19.379Z,4.80
2023-04-10T21:20:24.390Z,5.05
2023-04-10T21:23:28.088Z,5.82
2023-04-10T21:26:31.612Z,5.50
2023-04-10T21:29:35.005Z,6.63
2023-04-10T21:32:38.689Z,6.53
2023-04-10T21:35:45.483Z,5.38
2023-04-10T21:38:48.946Z,5.25
2023-04-10T21:41:52.476Z,5.07
2023-04-10T21:44:55.923Z,5.70
2023-04-10T21:48:00.564Z,5.17
2023-04-10T21:51:04.223Z,5.07
2023-04-10T21:54:07.794Z,5.70
2023-04-10T21:57:11.145Z,5.03
2023-04-10T22:00:16.981Z,4.90
2023-04-10T22:03:21.335Z,5.07
2023-04-10T22:06:24.947Z,5.53
2023-04-10T22:09:28.346Z,5.15
2023-04-10T22:12:31.789Z,7.60
2023-04-10T22:15:35.192Z,9.07
2023-04-10T22:18:39.243Z,8.10
2023-04-10T22:21:42.645Z,9.38
2023-04-10T22:24:46.002Z,10.95
2023-04-10T22:27:49.365Z,9.68
2023-04-10T22:30:52.922Z,8.95
2023-04-10T22:33:56.335Z,6.90
2023-04-10T22:36:59.696Z,6.03
2023-04-10T22:40:03.392Z,5.78
2023-04-10T22:43:06.811Z,5.60
2023-04-10T22:46:11.033Z,5.35
2023-04-10T22:49:21.478Z,5.80
2023-04-10T22:52:24.841Z,5.57
2023-04-10T22:55:28.511Z,4.95
2023-04-10T22:58:31.989Z,5.35
2023-04-10T23:01:35.914Z,5.20
2023-04-10T23:04:39.474Z,5.10
2023-04-10T23:07:42.792Z,5.03
2023-04-10T23:10:46.464Z,4.88
2023-04-10T23:13:49.945Z,7.03
2023-04-10T23:16:53.286Z,6.55
2023-04-10T23:19:56.630Z,5.43
2023-04-10T23:23:00.154Z,5.68
2023-04-10T23:26:03.808Z,5.40
2023-04-10T23:29:07.194Z,6.05
2023-04-10T23:32:10.631Z,6.43
2023-04-10T23:35:14.062Z,5.70
2023-04-10T23:38:17.465Z,6.40
2023-04-10T23:41:21.604Z,5.72
2023-04-10T23:44:25.055Z,5.68
2023-04-10T23:47:28.570Z,5.68
2023-04-10T23:50:33.371Z,5.67
2023-04-10T23:53:36.946Z,6.13
2023-04-10T23:56:40.671Z,7.60
2023-04-10T23:59:44.231Z,8.32
